sensor_id;sensor_type;location;lat;lon;timestamp;temperature;humidity
16976;DHT22;8604;48.148;-1.786;2023-12-29T00:00:22;9.60;99.90
16976;DHT22;8604;48.148;-1.786;2023-12-29T00:02:51;9.60;99.90
16976;DHT22;8604;48.148;-1.786;2023-12-29T00:05:19;9.60;99.90
16976;DHT22;8604;48.148;-1.786;2023-12-29T00:07:49;9.60;99.90
16976;DHT22;8604;48.148;-1.786;2023-12-29T00:10:17;9.60;99.90
16976;DHT22;8604;48.148;-1.786;2023-12-29T00:12:46;9.60;99.90
16976;DHT22;8604;48.148;-1.786;2023-12-29T00:15:17;9.60;99.90
16976;DHT22;8604;48.148;-1.786;2023-12-29T00:17:46;9.50;99.90
16976;DHT22;8604;48.148;-1.786;2023-12-29T00:20:14;9.50;99.90
16976;DHT22;8604;48.148;-1.786;2023-12-29T00:23:01;9.50;99.90
16976;DHT22;8604;48.148;-1.786;2023-12-29T00:25:29;9.60;99.90
16976;DHT22;8604;48.148;-1.786;2023-12-29T00:27:57;9.60;99.90
16976;DHT22;8604;48.148;-1.786;2023-12-29T00:30:26;9.50;99.90
16976;DHT22;8604;48.148;-1.786;2023-12-29T00:33:16;9.60;99.90
16976;DHT22;8604;48.148;-1.786;2023-12-29T00:35:45;9.60;99.90
16976;DHT22;8604;48.148;-1.786;2023-12-29T00:38:14;9.60;99.90
16976;DHT22;8604;48.148;-1.786;2023-12-29T00:40:43;9.60;99.90
16976;DHT22;8604;48.148;-1.786;2023-12-29T00:43:12;9.60;99.90
16976;DHT22;8604;48.148;-1.786;2023-12-29T00:45:41;9.60;99.90
16976;DHT22;8604;48.148;-1.786;2023-12-29T00:48:09;9.70;99.90
16976;DHT22;8604;48.148;-1.786;2023-12-29T00:50:38;9.70;99.90
16976;DHT22;8604;48.148;-1.786;2023-12-29T00:53:06;9.80;99.90
16976;DHT22;8604;48.148;-1.786;2023-12-29T00:55:36;9.80;99.90
16976;DHT22;8604;48.148;-1.786;2023-12-29T00:58:05;9.80;99.90
16976;DHT22;8604;48.148;-1.786;2023-12-29T01:00:36;9.80;99.90
16976;DHT22;8604;48.148;-1.786;2023-12-29T01:03:05;9.90;99.90
16976;DHT22;8604;48.148;-1.786;2023-12-29T01:05:33;9.80;99.90
16976;DHT22;8604;48.148;-1.786;2023-12-29T01:08:01;9.90;99.90
16976;DHT22;8604;48.148;-1.786;2023-12-29T01:10:30;9.90;99.90
16976;DHT22;8604;48.148;-1.786;2023-12-29T01:12:59;9.90;99.90
16976;DHT22;8604;48.148;-1.786;2023-12-29T01:15:28;9.90;99.90
16976;DHT22;8604;48.148;-1.786;2023-12-29T01:17:56;10.00;99.90
16976;DHT22;8604;48.148;-1.786;2023-12-29T01:20:25;10.00;99.90
16976;DHT22;8604;48.148;-1.786;2023-12-29T01:22:53;10.00;99.90
16976;DHT22;8604;48.148;-1.786;2023-12-29T01:25:23;10.00;99.90
16976;DHT22;8604;48.148;-1.786;2023-12-29T01:27:52;10.00;99.90
16976;DHT22;8604;48.148;-1.786;2023-12-29T01:30:22;10.00;99.90
16976;DHT22;8604;48.148;-1.786;2023-12-29T01:32:51;10.00;99.90
16976;DHT22;8604;48.148;-1.786;2023-12-29T01:35:19;10.00;99.90
16976;DHT22;8604;48.148;-1.786;2023-12-29T01:37:47;10.00;99.90
16976;DHT22;8604;48.148;-1.786;2023-12-29T01:40:16;10.00;99.90
16976;DHT22;8604;48.148;-1.786;2023-12-29T01:42:44;10.00;99.90
16976;DHT22;8604;48.148;-1.786;2023-12-29T01:45:21;9.90;99.90
16976;DHT22;8604;48.148;-1.786;2023-12-29T01:47:51;10.00;99.90
16976;DHT22;8604;48.148;-1.786;2023-12-29T01:50:23;9.90;99.90
16976;DHT22;8604;48.148;-1.786;2023-12-29T01:52:52;9.90;99.90
16976;DHT22;8604;48.148;-1.786;2023-12-29T01:55:21;9.90;99.90
16976;DHT22;8604;48.148;-1.786;2023-12-29T01:57:50;9.90;99.90
16976;DHT22;8604;48.148;-1.786;2023-12-29T02:00:19;9.80;99.90
16976;DHT22;8604;48.148;-1.786;2023-12-29T02:02:50;9.80;99.90
16976;DHT22;8604;48.148;-1.786;2023-12-29T02:05:20;9.80;99.90
16976;DHT22;8604;48.148;-1.786;2023-12-29T02:07:51;9.80;99.90
16976;DHT22;8604;48.148;-1.786;2023-12-29T02:10:20;9.80;99.90
16976;DHT22;8604;48.148;-1.786;2023-12-29T02:12:50;9.80;99.90
16976;DHT22;8604;48.148;-1.786;2023-12-29T02:15:22;9.80;99.90
16976;DHT22;8604;48.148;-1.786;2023-12-29T02:17:59;9.80;99.90
16976;DHT22;8604;48.148;-1.786;2023-12-29T02:20:29;9.80;99.90
16976;DHT22;8604;48.148;-1.786;2023-12-29T02:22:58;9.80;99.90
16976;DHT22;8604;48.148;-1.786;2023-12-29T02:25:29;9.80;99.90
16976;DHT22;8604;48.148;-1.786;2023-12-29T02:28:01;9.80;99.90
16976;DHT22;8604;48.148;-1.786;2023-12-29T02:30:38;9.80;99.90
16976;DHT22;8604;48.148;-1.786;2023-12-29T02:33:12;9.80;99.90
16976;DHT22;8604;48.148;-1.786;2023-12-29T02:35:43;9.80;99.90
16976;DHT22;8604;48.148;-1.786;2023-12-29T02:38:13;9.80;99.90
16976;DHT22;8604;48.148;-1.786;2023-12-29T02:40:43;9.80;99.90
16976;DHT22;8604;48.148;-1.786;2023-12-29T02:43:11;9.80;99.90
16976;DHT22;8604;48.148;-1.786;2023-12-29T02:45:40;9.80;99.90
16976;DHT22;8604;48.148;-1.786;2023-12-29T02:48:09;9.70;99.90
16976;DHT22;8604;48.148;-1.786;2023-12-29T02:50:39;9.80;99.90
16976;DHT22;8604;48.148;-1.786;2023-12-29T02:53:08;9.70;99.90
16976;DHT22;8604;48.148;-1.786;2023-12-29T02:55:36;9.80;99.90
16976;DHT22;8604;48.148;-1.786;2023-12-29T02:58:06;9.80;99.90
16976;DHT22;8604;48.148;-1.786;2023-12-29T03:00:34;9.80;99.90
16976;DHT22;8604;48.148;-1.786;2023-12-29T03:03:03;9.70;99.90
16976;DHT22;8604;48.148;-1.786;2023-12-29T03:05:32;9.70;99.90
16976;DHT22;8604;48.148;-1.786;2023-12-29T03:08:00;9.70;99.90
16976;DHT22;8604;48.148;-1.786;2023-12-29T03:10:29;9.70;99.90
16976;DHT22;8604;48.148;-1.786;2023-12-29T03:12:58;9.70;99.90
16976;DHT22;8604;48.148;-1.786;2023-12-29T03:15:28;9.70;99.90
16976;DHT22;8604;48.148;-1.786;2023-12-29T03:17:56;9.70;99.90
16976;DHT22;8604;48.148;-1.786;2023-12-29T03:20:25;9.70;99.90
16976;DHT22;8604;48.148;-1.786;2023-12-29T03:22:54;9.70;99.90
16976;DHT22;8604;48.148;-1.786;2023-12-29T03:25:23;9.60;99.90
16976;DHT22;8604;48.148;-1.786;2023-12-29T03:27:51;9.60;99.90
16976;DHT22;8604;48.148;-1.786;2023-12-29T03:30:21;9.60;99.90
16976;DHT22;8604;48.148;-1.786;2023-12-29T03:32:51;9.60;99.90
16976;DHT22;8604;48.148;-1.786;2023-12-29T03:35:19;9.60;99.90
16976;DHT22;8604;48.148;-1.786;2023-12-29T03:37:48;9.50;99.90
16976;DHT22;8604;48.148;-1.786;2023-12-29T03:40:16;9.50;99.90
16976;DHT22;8604;48.148;-1.786;2023-12-29T03:42:45;9.50;99.90
16976;DHT22;8604;48.148;-1.786;2023-12-29T03:45:13;9.50;99.90
16976;DHT22;8604;48.148;-1.786;2023-12-29T03:47:42;9.50;99.90
16976;DHT22;8604;48.148;-1.786;2023-12-29T03:50:12;9.50;99.90
16976;DHT22;8604;48.148;-1.786;2023-12-29T03:52:40;9.50;99.90
16976;DHT22;8604;48.148;-1.786;2023-12-29T03:55:09;9.50;99.90
16976;DHT22;8604;48.148;-1.786;2023-12-29T03:57:39;9.50;99.90
16976;DHT22;8604;48.148;-1.786;2023-12-29T04:00:11;9.50;99.90
16976;DHT22;8604;48.148;-1.786;2023-12-29T04:02:40;9.50;99.90
16976;DHT22;8604;48.148;-1.786;2023-12-29T04:05:09;9.50;99.90
16976;DHT22;8604;48.148;-1.786;2023-12-29T04:07:40;9.50;99.90
16976;DHT22;8604;48.148;-1.786;2023-12-29T04:10:09;9.40;99.90
16976;DHT22;8604;48.148;-1.786;2023-12-29T04:12:38;9.40;99.90
16976;DHT22;8604;48.148;-1.786;2023-12-29T04:15:07;9.40;99.90
16976;DHT22;8604;48.148;-1.786;2023-12-29T04:17:35;9.40;99.90
16976;DHT22;8604;48.148;-1.786;2023-12-29T04:20:05;9.40;99.90
16976;DHT22;8604;48.148;-1.786;2023-12-29T04:22:33;9.40;99.90
16976;DHT22;8604;48.148;-1.786;2023-12-29T04:25:04;9.40;99.90
16976;DHT22;8604;48.148;-1.786;2023-12-29T04:27:32;9.40;99.90
16976;DHT22;8604;48.148;-1.786;2023-12-29T04:30:01;9.50;99.90
16976;DHT22;8604;48.148;-1.786;2023-12-29T04:32:30;9.50;99.90
16976;DHT22;8604;48.148;-1.786;2023-12-29T04:34:59;9.40;99.90
16976;DHT22;8604;48.148;-1.786;2023-12-29T04:37:27;9.40;99.90
16976;DHT22;8604;48.148;-1.786;2023-12-29T04:39:55;9.50;99.90
16976;DHT22;8604;48.148;-1.786;2023-12-29T04:42:25;9.50;99.90
16976;DHT22;8604;48.148;-1.786;2023-12-29T04:44:54;9.50;99.90
16976;DHT22;8604;48.148;-1.786;2023-12-29T04:47:22;9.40;99.90
16976;DHT22;8604;48.148;-1.786;2023-12-29T04:49:50;9.50;99.90
16976;DHT22;8604;48.148;-1.786;2023-12-29T04:52:19;9.40;99.90
16976;DHT22;8604;48.148;-1.786;2023-12-29T04:54:48;9.40;99.90
16976;DHT22;8604;48.148;-1.786;2023-12-29T04:57:18;9.50;99.90
16976;DHT22;8604;48.148;-1.786;2023-12-29T04:59:47;9.50;99.90
16976;DHT22;8604;48.148;-1.786;2023-12-29T05:02:16;9.50;99.90
16976;DHT22;8604;48.148;-1.786;2023-12-29T05:04:46;9.50;99.90
16976;DHT22;8604;48.148;-1.786;2023-12-29T05:07:14;9.50;99.90
16976;DHT22;8604;48.148;-1.786;2023-12-29T05:09:43;9.50;99.90
16976;DHT22;8604;48.148;-1.786;2023-12-29T05:12:11;9.50;99.90
16976;DHT22;8604;48.148;-1.786;2023-12-29T05:14:39;9.50;99.90
16976;DHT22;8604;48.148;-1.786;2023-12-29T05:17:09;9.50;99.90
16976;DHT22;8604;48.148;-1.786;2023-12-29T05:19:38;9.50;99.90
16976;DHT22;8604;48.148;-1.786;2023-12-29T05:22:06;9.50;99.90
16976;DHT22;8604;48.148;-1.786;2023-12-29T05:24:35;9.60;99.90
16976;DHT22;8604;48.148;-1.786;2023-12-29T05:27:03;9.60;99.90
16976;DHT22;8604;48.148;-1.786;2023-12-29T05:29:32;9.60;99.90
16976;DHT22;8604;48.148;-1.786;2023-12-29T05:32:00;9.60;99.90
16976;DHT22;8604;48.148;-1.786;2023-12-29T05:34:30;9.70;99.90
16976;DHT22;8604;48.148;-1.786;2023-12-29T05:36:59;9.70;99.90
16976;DHT22;8604;48.148;-1.786;2023-12-29T05:39:27;9.70;99.90
16976;DHT22;8604;48.148;-1.786;2023-12-29T05:41:56;9.80;99.90
16976;DHT22;8604;48.148;-1.786;2023-12-29T05:44:24;9.80;99.90
16976;DHT22;8604;48.148;-1.786;2023-12-29T05:46:53;9.90;99.90
16976;DHT22;8604;48.148;-1.786;2023-12-29T05:49:24;9.90;99.90
16976;DHT22;8604;48.148;-1.786;2023-12-29T05:51:54;9.90;99.90
16976;DHT22;8604;48.148;-1.786;2023-12-29T05:54:23;9.90;99.90
16976;DHT22;8604;48.148;-1.786;2023-12-29T05:56:51;9.90;99.90
16976;DHT22;8604;48.148;-1.786;2023-12-29T05:59:20;9.90;99.90
16976;DHT22;8604;48.148;-1.786;2023-12-29T06:01:48;9.90;99.90
16976;DHT22;8604;48.148;-1.786;2023-12-29T06:04:17;9.90;99.90
16976;DHT22;8604;48.148;-1.786;2023-12-29T06:06:45;9.90;99.90
16976;DHT22;8604;48.148;-1.786;2023-12-29T06:09:15;9.90;99.90
16976;DHT22;8604;48.148;-1.786;2023-12-29T06:11:44;9.90;99.90
16976;DHT22;8604;48.148;-1.786;2023-12-29T06:14:12;9.90;99.90
16976;DHT22;8604;48.148;-1.786;2023-12-29T06:16:41;9.90;99.90
16976;DHT22;8604;48.148;-1.786;2023-12-29T06:19:10;9.90;99.90
16976;DHT22;8604;48.148;-1.786;2023-12-29T06:21:41;9.90;99.90
16976;DHT22;8604;48.148;-1.786;2023-12-29T06:24:11;9.90;99.90
16976;DHT22;8604;48.148;-1.786;2023-12-29T06:26:41;9.90;99.90
16976;DHT22;8604;48.148;-1.786;2023-12-29T06:29:11;9.90;99.90
16976;DHT22;8604;48.148;-1.786;2023-12-29T06:31:40;9.90;99.90
16976;DHT22;8604;48.148;-1.786;2023-12-29T06:34:10;9.90;99.90
16976;DHT22;8604;48.148;-1.786;2023-12-29T06:36:38;9.90;99.90
16976;DHT22;8604;48.148;-1.786;2023-12-29T06:39:07;9.80;99.90
16976;DHT22;8604;48.148;-1.786;2023-12-29T06:41:35;9.90;99.90
16976;DHT22;8604;48.148;-1.786;2023-12-29T06:44:05;9.80;99.90
16976;DHT22;8604;48.148;-1.786;2023-12-29T06:47:02;9.90;99.90
16976;DHT22;8604;48.148;-1.786;2023-12-29T06:49:41;9.90;99.90
16976;DHT22;8604;48.148;-1.786;2023-12-29T06:52:51;9.80;99.90
16976;DHT22;8604;48.148;-1.786;2023-12-29T06:55:41;9.80;99.90
16976;DHT22;8604;48.148;-1.786;2023-12-29T06:58:20;9.80;99.90
16976;DHT22;8604;48.148;-1.786;2023-12-29T07:00:58;9.80;99.90
16976;DHT22;8604;48.148;-1.786;2023-12-29T07:03:35;9.80;99.90
16976;DHT22;8604;48.148;-1.786;2023-12-29T07:06:44;9.90;99.90
16976;DHT22;8604;48.148;-1.786;2023-12-29T07:09:20;9.90;99.90
16976;DHT22;8604;48.148;-1.786;2023-12-29T07:12:10;9.80;99.90
16976;DHT22;8604;48.148;-1.786;2023-12-29T07:14:57;9.80;99.90
16976;DHT22;8604;48.148;-1.786;2023-12-29T07:17:29;9.80;99.90
16976;DHT22;8604;48.148;-1.786;2023-12-29T07:20:27;9.80;99.90
16976;DHT22;8604;48.148;-1.786;2023-12-29T07:23:51;9.80;99.90
16976;DHT22;8604;48.148;-1.786;2023-12-29T07:26:28;9.80;99.90
16976;DHT22;8604;48.148;-1.786;2023-12-29T07:29:26;9.80;99.90
16976;DHT22;8604;48.148;-1.786;2023-12-29T07:32:05;9.80;99.90
16976;DHT22;8604;48.148;-1.786;2023-12-29T07:34:39;9.80;99.90
16976;DHT22;8604;48.148;-1.786;2023-12-29T07:37:20;9.80;99.90
16976;DHT22;8604;48.148;-1.786;2023-12-29T07:40:00;9.80;99.90
16976;DHT22;8604;48.148;-1.786;2023-12-29T07:42:31;9.80;99.90
16976;DHT22;8604;48.148;-1.786;2023-12-29T07:47:56;9.80;99.90
16976;DHT22;8604;48.148;-1.786;2023-12-29T07:50:26;9.80;99.90
16976;DHT22;8604;48.148;-1.786;2023-12-29T07:52:55;9.90;99.90
16976;DHT22;8604;48.148;-1.786;2023-12-29T07:55:23;9.90;99.90
16976;DHT22;8604;48.148;-1.786;2023-12-29T07:57:51;9.90;99.90
16976;DHT22;8604;48.148;-1.786;2023-12-29T08:00:20;9.90;99.90
16976;DHT22;8604;48.148;-1.786;2023-12-29T08:02:49;9.80;99.90
16976;DHT22;8604;48.148;-1.786;2023-12-29T08:05:18;9.90;99.90
16976;DHT22;8604;48.148;-1.786;2023-12-29T08:07:49;9.90;99.90
16976;DHT22;8604;48.148;-1.786;2023-12-29T08:10:17;9.90;99.90
16976;DHT22;8604;48.148;-1.786;2023-12-29T08:12:46;9.90;99.90
16976;DHT22;8604;48.148;-1.786;2023-12-29T08:15:14;9.90;99.90
16976;DHT22;8604;48.148;-1.786;2023-12-29T08:17:44;9.90;99.90
16976;DHT22;8604;48.148;-1.786;2023-12-29T08:20:12;10.00;99.90
16976;DHT22;8604;48.148;-1.786;2023-12-29T08:22:41;10.00;99.90
16976;DHT22;8604;48.148;-1.786;2023-12-29T08:25:11;10.00;99.90
16976;DHT22;8604;48.148;-1.786;2023-12-29T08:27:40;10.00;99.90
16976;DHT22;8604;48.148;-1.786;2023-12-29T08:30:09;10.00;99.90
16976;DHT22;8604;48.148;-1.786;2023-12-29T08:32:38;10.10;99.90
16976;DHT22;8604;48.148;-1.786;2023-12-29T08:35:07;10.10;99.90
16976;DHT22;8604;48.148;-1.786;2023-12-29T08:37:36;10.10;99.90
16976;DHT22;8604;48.148;-1.786;2023-12-29T08:40:05;10.20;99.90
16976;DHT22;8604;48.148;-1.786;2023-12-29T08:42:36;10.20;99.90
16976;DHT22;8604;48.148;-1.786;2023-12-29T08:45:05;10.20;99.90
16976;DHT22;8604;48.148;-1.786;2023-12-29T08:47:36;10.20;99.90
16976;DHT22;8604;48.148;-1.786;2023-12-29T08:50:05;10.30;99.90
16976;DHT22;8604;48.148;-1.786;2023-12-29T08:52:33;10.30;99.90
16976;DHT22;8604;48.148;-1.786;2023-12-29T08:55:04;10.30;99.90
16976;DHT22;8604;48.148;-1.786;2023-12-29T08:57:32;10.40;99.90
16976;DHT22;8604;48.148;-1.786;2023-12-29T09:00:03;10.40;99.90
16976;DHT22;8604;48.148;-1.786;2023-12-29T09:02:32;10.50;99.90
16976;DHT22;8604;48.148;-1.786;2023-12-29T09:05:00;10.50;99.90
16976;DHT22;8604;48.148;-1.786;2023-12-29T09:07:29;10.60;99.90
16976;DHT22;8604;48.148;-1.786;2023-12-29T09:09:57;10.70;99.90
16976;DHT22;8604;48.148;-1.786;2023-12-29T09:12:29;10.80;99.90
16976;DHT22;8604;48.148;-1.786;2023-12-29T09:14:57;10.90;99.90
16976;DHT22;8604;48.148;-1.786;2023-12-29T09:17:27;11.00;99.90
16976;DHT22;8604;48.148;-1.786;2023-12-29T09:19:56;11.10;99.90
16976;DHT22;8604;48.148;-1.786;2023-12-29T09:22:36;11.20;99.90
16976;DHT22;8604;48.148;-1.786;2023-12-29T09:25:05;11.20;99.90
16976;DHT22;8604;48.148;-1.786;2023-12-29T09:27:34;11.20;99.90
16976;DHT22;8604;48.148;-1.786;2023-12-29T09:30:04;11.20;99.90
16976;DHT22;8604;48.148;-1.786;2023-12-29T09:32:34;11.30;99.90
16976;DHT22;8604;48.148;-1.786;2023-12-29T09:35:04;11.30;99.90
16976;DHT22;8604;48.148;-1.786;2023-12-29T09:37:32;11.40;99.90
16976;DHT22;8604;48.148;-1.786;2023-12-29T09:40:01;11.40;99.90
16976;DHT22;8604;48.148;-1.786;2023-12-29T09:42:31;11.50;99.90
16976;DHT22;8604;48.148;-1.786;2023-12-29T09:45:01;11.60;99.90
16976;DHT22;8604;48.148;-1.786;2023-12-29T09:47:39;11.60;99.90
16976;DHT22;8604;48.148;-1.786;2023-12-29T09:50:11;11.70;99.90
16976;DHT22;8604;48.148;-1.786;2023-12-29T09:52:40;11.80;99.90
16976;DHT22;8604;48.148;-1.786;2023-12-29T09:55:09;11.90;99.90
16976;DHT22;8604;48.148;-1.786;2023-12-29T09:57:39;11.90;99.90
16976;DHT22;8604;48.148;-1.786;2023-12-29T10:00:11;11.90;99.90
16976;DHT22;8604;48.148;-1.786;2023-12-29T10:03:06;11.90;99.90
16976;DHT22;8604;48.148;-1.786;2023-12-29T10:05:36;11.90;99.90
16976;DHT22;8604;48.148;-1.786;2023-12-29T10:08:09;12.00;99.90
16976;DHT22;8604;48.148;-1.786;2023-12-29T10:10:41;12.00;99.90
16976;DHT22;8604;48.148;-1.786;2023-12-29T10:13:11;12.00;99.90
16976;DHT22;8604;48.148;-1.786;2023-12-29T10:15:47;12.00;99.90
16976;DHT22;8604;48.148;-1.786;2023-12-29T10:18:25;12.00;99.90
16976;DHT22;8604;48.148;-1.786;2023-12-29T10:21:07;12.00;99.90
16976;DHT22;8604;48.148;-1.786;2023-12-29T10:23:41;12.00;99.90
16976;DHT22;8604;48.148;-1.786;2023-12-29T10:26:11;12.00;99.90
16976;DHT22;8604;48.148;-1.786;2023-12-29T10:28:40;12.10;99.90
16976;DHT22;8604;48.148;-1.786;2023-12-29T10:31:13;12.10;99.90
16976;DHT22;8604;48.148;-1.786;2023-12-29T10:33:44;12.20;99.90
16976;DHT22;8604;48.148;-1.786;2023-12-29T10:36:18;12.30;99.90
16976;DHT22;8604;48.148;-1.786;2023-12-29T10:39:05;12.40;99.90
16976;DHT22;8604;48.148;-1.786;2023-12-29T10:41:34;12.50;99.90
16976;DHT22;8604;48.148;-1.786;2023-12-29T10:44:06;12.60;99.90
16976;DHT22;8604;48.148;-1.786;2023-12-29T10:46:35;12.60;99.90
16976;DHT22;8604;48.148;-1.786;2023-12-29T10:49:09;12.60;99.90
16976;DHT22;8604;48.148;-1.786;2023-12-29T10:51:38;12.60;99.90
16976;DHT22;8604;48.148;-1.786;2023-12-29T10:54:07;12.60;99.90
16976;DHT22;8604;48.148;-1.786;2023-12-29T10:56:36;12.80;99.90
16976;DHT22;8604;48.148;-1.786;2023-12-29T10:59:05;12.80;99.90
16976;DHT22;8604;48.148;-1.786;2023-12-29T11:01:35;12.80;99.90
16976;DHT22;8604;48.148;-1.786;2023-12-29T11:04:06;12.70;99.90
16976;DHT22;8604;48.148;-1.786;2023-12-29T11:06:42;12.70;99.90
16976;DHT22;8604;48.148;-1.786;2023-12-29T11:09:12;12.70;99.90
16976;DHT22;8604;48.148;-1.786;2023-12-29T11:11:42;12.70;99.90
16976;DHT22;8604;48.148;-1.786;2023-12-29T11:14:11;12.70;99.90
16976;DHT22;8604;48.148;-1.786;2023-12-29T11:16:42;12.80;99.90
16976;DHT22;8604;48.148;-1.786;2023-12-29T11:19:11;12.80;99.90
16976;DHT22;8604;48.148;-1.786;2023-12-29T11:21:43;12.90;99.90
16976;DHT22;8604;48.148;-1.786;2023-12-29T11:24:12;12.80;99.90
16976;DHT22;8604;48.148;-1.786;2023-12-29T11:26:49;12.90;99.90
16976;DHT22;8604;48.148;-1.786;2023-12-29T11:29:18;12.80;99.90
16976;DHT22;8604;48.148;-1.786;2023-12-29T11:31:47;12.80;99.90
16976;DHT22;8604;48.148;-1.786;2023-12-29T11:34:25;12.70;99.90
16976;DHT22;8604;48.148;-1.786;2023-12-29T11:37:04;12.70;99.90
16976;DHT22;8604;48.148;-1.786;2023-12-29T11:39:40;12.80;99.90
16976;DHT22;8604;48.148;-1.786;2023-12-29T11:42:14;12.80;99.90
16976;DHT22;8604;48.148;-1.786;2023-12-29T11:44:46;12.70;99.90
16976;DHT22;8604;48.148;-1.786;2023-12-29T11:47:35;12.80;99.90
16976;DHT22;8604;48.148;-1.786;2023-12-29T11:50:04;12.80;99.90
16976;DHT22;8604;48.148;-1.786;2023-12-29T11:52:35;12.80;99.90
16976;DHT22;8604;48.148;-1.786;2023-12-29T11:55:10;12.80;99.90
16976;DHT22;8604;48.148;-1.786;2023-12-29T11:57:39;12.80;99.90
16976;DHT22;8604;48.148;-1.786;2023-12-29T12:00:09;12.90;99.90
16976;DHT22;8604;48.148;-1.786;2023-12-29T12:02:39;12.90;99.90
16976;DHT22;8604;48.148;-1.786;2023-12-29T12:05:09;12.90;99.90
16976;DHT22;8604;48.148;-1.786;2023-12-29T12:07:58;13.00;99.90
16976;DHT22;8604;48.148;-1.786;2023-12-29T12:10:29;13.10;99.90
16976;DHT22;8604;48.148;-1.786;2023-12-29T12:13:00;13.10;99.90
16976;DHT22;8604;48.148;-1.786;2023-12-29T12:15:33;13.20;99.90
16976;DHT22;8604;48.148;-1.786;2023-12-29T12:18:03;13.20;99.90
16976;DHT22;8604;48.148;-1.786;2023-12-29T12:20:34;13.30;99.90
16976;DHT22;8604;48.148;-1.786;2023-12-29T12:23:10;13.40;99.90
16976;DHT22;8604;48.148;-1.786;2023-12-29T12:25:39;13.50;99.90
16976;DHT22;8604;48.148;-1.786;2023-12-29T12:28:09;13.50;99.90
16976;DHT22;8604;48.148;-1.786;2023-12-29T12:30:38;13.60;99.90
16976;DHT22;8604;48.148;-1.786;2023-12-29T12:33:07;13.70;99.90
16976;DHT22;8604;48.148;-1.786;2023-12-29T12:35:39;13.70;99.90
16976;DHT22;8604;48.148;-1.786;2023-12-29T12:40:38;13.80;99.90
16976;DHT22;8604;48.148;-1.786;2023-12-29T12:43:07;13.90;99.90
16976;DHT22;8604;48.148;-1.786;2023-12-29T12:45:41;13.90;99.90
16976;DHT22;8604;48.148;-1.786;2023-12-29T12:48:13;13.90;99.90
16976;DHT22;8604;48.148;-1.786;2023-12-29T12:50:43;13.90;99.90
16976;DHT22;8604;48.148;-1.786;2023-12-29T12:53:15;13.90;99.90
16976;DHT22;8604;48.148;-1.786;2023-12-29T12:55:48;13.90;99.90
16976;DHT22;8604;48.148;-1.786;2023-12-29T12:58:18;13.90;99.90
16976;DHT22;8604;48.148;-1.786;2023-12-29T13:00:48;13.80;99.90
16976;DHT22;8604;48.148;-1.786;2023-12-29T13:03:21;13.80;99.90
16976;DHT22;8604;48.148;-1.786;2023-12-29T13:05:50;13.70;99.90
16976;DHT22;8604;48.148;-1.786;2023-12-29T13:08:20;13.60;99.90
16976;DHT22;8604;48.148;-1.786;2023-12-29T13:11:01;13.60;99.90
16976;DHT22;8604;48.148;-1.786;2023-12-29T13:13:37;13.60;99.90
16976;DHT22;8604;48.148;-1.786;2023-12-29T13:16:06;13.60;99.90
16976;DHT22;8604;48.148;-1.786;2023-12-29T13:18:35;13.50;99.90
16976;DHT22;8604;48.148;-1.786;2023-12-29T13:21:04;13.50;99.90
16976;DHT22;8604;48.148;-1.786;2023-12-29T13:23:36;13.50;99.90
16976;DHT22;8604;48.148;-1.786;2023-12-29T13:26:07;13.50;99.90
16976;DHT22;8604;48.148;-1.786;2023-12-29T13:28:36;13.40;99.90
16976;DHT22;8604;48.148;-1.786;2023-12-29T13:31:09;13.30;99.90
16976;DHT22;8604;48.148;-1.786;2023-12-29T13:33:48;13.20;99.90
16976;DHT22;8604;48.148;-1.786;2023-12-29T13:36:24;13.20;99.90
16976;DHT22;8604;48.148;-1.786;2023-12-29T13:39:02;13.10;99.90
16976;DHT22;8604;48.148;-1.786;2023-12-29T13:41:34;13.00;99.90
16976;DHT22;8604;48.148;-1.786;2023-12-29T13:44:03;12.90;99.90
16976;DHT22;8604;48.148;-1.786;2023-12-29T13:46:34;12.70;99.90
16976;DHT22;8604;48.148;-1.786;2023-12-29T13:49:04;12.70;99.90
16976;DHT22;8604;48.148;-1.786;2023-12-29T13:51:34;12.70;99.90
16976;DHT22;8604;48.148;-1.786;2023-12-29T13:54:05;12.60;99.90
16976;DHT22;8604;48.148;-1.786;2023-12-29T13:56:34;12.40;99.90
16976;DHT22;8604;48.148;-1.786;2023-12-29T13:59:02;12.30;99.90
16976;DHT22;8604;48.148;-1.786;2023-12-29T14:01:38;12.30;99.90
16976;DHT22;8604;48.148;-1.786;2023-12-29T14:04:07;12.20;99.90
16976;DHT22;8604;48.148;-1.786;2023-12-29T14:06:43;12.20;99.90
16976;DHT22;8604;48.148;-1.786;2023-12-29T14:09:18;12.20;99.90
16976;DHT22;8604;48.148;-1.786;2023-12-29T14:11:48;12.20;99.90
16976;DHT22;8604;48.148;-1.786;2023-12-29T14:14:22;12.20;99.90
16976;DHT22;8604;48.148;-1.786;2023-12-29T14:16:52;12.10;99.90
16976;DHT22;8604;48.148;-1.786;2023-12-29T14:19:20;12.10;99.90
16976;DHT22;8604;48.148;-1.786;2023-12-29T14:21:51;12.10;99.90
16976;DHT22;8604;48.148;-1.786;2023-12-29T14:24:22;12.10;99.90
16976;DHT22;8604;48.148;-1.786;2023-12-29T14:26:55;12.10;99.90
16976;DHT22;8604;48.148;-1.786;2023-12-29T14:29:26;12.00;99.90
16976;DHT22;8604;48.148;-1.786;2023-12-29T14:31:55;12.00;99.90
16976;DHT22;8604;48.148;-1.786;2023-12-29T14:34:24;12.00;99.90
16976;DHT22;8604;48.148;-1.786;2023-12-29T14:36:53;11.90;99.90
16976;DHT22;8604;48.148;-1.786;2023-12-29T14:39:23;11.80;99.90
16976;DHT22;8604;48.148;-1.786;2023-12-29T14:41:52;11.80;99.90
16976;DHT22;8604;48.148;-1.786;2023-12-29T14:44:21;11.80;99.90
16976;DHT22;8604;48.148;-1.786;2023-12-29T14:46:51;11.80;99.90
16976;DHT22;8604;48.148;-1.786;2023-12-29T14:49:20;11.80;99.90
16976;DHT22;8604;48.148;-1.786;2023-12-29T14:51:49;11.80;99.90
16976;DHT22;8604;48.148;-1.786;2023-12-29T14:54:17;11.70;99.90
16976;DHT22;8604;48.148;-1.786;2023-12-29T14:56:48;11.70;99.90
16976;DHT22;8604;48.148;-1.786;2023-12-29T14:59:17;11.60;99.90
16976;DHT22;8604;48.148;-1.786;2023-12-29T15:01:46;11.60;99.90
16976;DHT22;8604;48.148;-1.786;2023-12-29T15:04:15;11.60;99.90
16976;DHT22;8604;48.148;-1.786;2023-12-29T15:06:44;11.50;99.90
16976;DHT22;8604;48.148;-1.786;2023-12-29T15:09:13;11.50;99.90
16976;DHT22;8604;48.148;-1.786;2023-12-29T15:11:42;11.50;99.90
16976;DHT22;8604;48.148;-1.786;2023-12-29T15:14:13;11.40;99.90
16976;DHT22;8604;48.148;-1.786;2023-12-29T15:16:41;11.40;99.90
16976;DHT22;8604;48.148;-1.786;2023-12-29T15:19:10;11.30;99.90
16976;DHT22;8604;48.148;-1.786;2023-12-29T15:21:39;11.30;99.90
16976;DHT22;8604;48.148;-1.786;2023-12-29T15:24:08;11.30;99.90
16976;DHT22;8604;48.148;-1.786;2023-12-29T15:26:40;11.30;99.90
16976;DHT22;8604;48.148;-1.786;2023-12-29T15:29:09;11.20;99.90
16976;DHT22;8604;48.148;-1.786;2023-12-29T15:31:42;11.20;99.90
16976;DHT22;8604;48.148;-1.786;2023-12-29T15:34:11;11.10;99.90
16976;DHT22;8604;48.148;-1.786;2023-12-29T15:36:42;11.10;99.90
16976;DHT22;8604;48.148;-1.786;2023-12-29T15:39:12;11.10;99.90
16976;DHT22;8604;48.148;-1.786;2023-12-29T15:41:40;11.10;99.90
16976;DHT22;8604;48.148;-1.786;2023-12-29T15:44:09;11.10;99.90
16976;DHT22;8604;48.148;-1.786;2023-12-29T15:46:39;11.00;99.90
16976;DHT22;8604;48.148;-1.786;2023-12-29T15:49:07;11.00;99.90
16976;DHT22;8604;48.148;-1.786;2023-12-29T15:51:36;11.00;99.90
16976;DHT22;8604;48.148;-1.786;2023-12-29T15:54:04;11.00;99.90
16976;DHT22;8604;48.148;-1.786;2023-12-29T15:56:33;10.90;99.90
16976;DHT22;8604;48.148;-1.786;2023-12-29T15:59:02;10.90;99.90
16976;DHT22;8604;48.148;-1.786;2023-12-29T16:01:31;10.90;99.90
16976;DHT22;8604;48.148;-1.786;2023-12-29T16:04:01;10.90;99.90
16976;DHT22;8604;48.148;-1.786;2023-12-29T16:06:30;10.80;99.90